Latest Weather Observations for Brisbane

IDQ60801

Issued at 1:32 pm EST Tuesday 9 February 2016 (issued every 30 minutes, with the page automatically refreshed every 10 minutes)

About weather observations | Map of weather stations | Latest weather observations for QLD | Other Formats
Station Details ID: 040913 Name: BRISBANE Lat: -27.48 Lon: 153.04 Height: 8.13 m
Data from the previous 72 hours. | See also: Recent months at Brisbane
Date/Time
EST
Temp
°C
App
Temp
°C
Dew
Point
Rel
Hum
%
Delta-T
°C
Wind Press
QNH
hPa
Press
MSL
hPa
Rain
since 9 am
mm
Dir
 
Spd
km/h
Gust
km/h
Spd
kts
Gust
kts
09/01:30pm 29.0 27.8 16.2 46 7.9 ESE 17 37 9 20 1013.8 1013.8 0.0
09/01:00pm 29.6 28.4 16.1 44 8.4 SE 17 30 9 16 1014.1 1014.1 0.0
09/12:30pm 29.1 28.3 16.0 45 8.1 SE 15 28 8 15 1014.2 1014.2 0.0
09/12:00pm 29.5 28.4 16.3 45 8.2 SE 17 28 9 15 1014.6 1014.6 0.0
09/11:30am 29.2 28.4 16.0 44 8.2 SE 15 24 8 13 1014.9 1014.9 0.0
09/11:00am 28.9 27.2 15.8 45 8.1 SSE 19 39 10 21 1015.2 1015.2 0.0
09/10:30am 28.8 27.3 16.4 47 7.7 SE 19 32 10 17 1015.5 1015.5 0.0
09/10:00am 28.2 27.9 17.4 52 6.8 SE 15 26 8 14 1015.7 1015.7 0.0
09/09:30am 28.1 27.1 15.7 46 7.6 SE 15 33 8 18 1015.9 1015.9 0.0
09/09:00am 27.4 27.8 17.3 54 6.3 SE 11 28 6 15 1015.8 1015.8 0.0
09/08:30am 25.5 26.6 17.2 60 5.2 SSE 7 15 4 8 1015.8 1015.8 0.0
09/08:00am 25.0 26.3 17.0 61 4.9 SW 6 13 3 7 1015.9 1015.9 0.0
09/07:30am 24.9 26.2 17.1 62 4.8 SSW 6 11 3 6 1015.7 1015.7 0.0
09/07:00am 23.5 24.8 17.0 67 4.0 SW 6 9 3 5 1015.5 1015.5 0.0
09/06:30am 22.2 23.8 16.9 72 3.2 SW 4 9 2 5 1015.3 1015.3 0.0
09/06:00am 21.0 22.7 17.2 79 2.3 WSW 4 11 2 6 1015.0 1015.0 0.0
09/05:30am 20.2 22.1 16.8 81 2.1 SW 2 7 1 4 1014.6 1014.6 0.0
09/05:00am 20.4 22.0 17.0 81 2.1 WSW 4 9 2 5 1014.2 1014.2 0.0
09/04:30am 20.6 21.9 17.0 80 2.2 WSW 6 7 3 4 1013.8 1013.8 0.0
09/04:00am 20.7 22.2 16.7 78 2.4 SW 4 7 2 4 1013.6 1013.6 0.0
09/03:30am 20.5 22.4 16.7 79 2.3 WSW 2 4 1 2 1013.6 1013.6 0.0
09/03:00am 21.1 22.2 16.5 75 2.8 SW 6 11 3 6 1013.5 1013.5 0.0
09/02:30am 21.3 22.9 16.9 76 2.7 WSW 4 9 2 5 1013.7 1013.7 0.0
09/02:00am 21.3 22.9 16.9 76 2.7 WSW 4 6 2 3 1013.8 1013.8 0.0
09/01:30am 21.4 23.3 16.6 74 2.9 SW 2 4 1 2 1014.1 1014.1 0.0
09/01:00am 22.1 23.6 16.6 71 3.3 SW 4 9 2 5 1014.4 1014.4 0.0
09/12:30am 22.5 24.1 17.0 71 3.4 SSW 4 9 2 5 1014.8 1014.8 0.0
09/12:00am 22.5 24.3 16.5 69 3.6 SSW 2 6 1 3 1015.1 1015.1 0.0
 
Date/Time
EST
Temp
°C
App
Temp
°C
Dew
Point
Rel
Hum
%
Delta-T
°C
Wind Press
QNH
hPa
Press
MSL
hPa
Rain
since 9 am
mm
Dir
 
Spd
km/h
Gust
km/h
Spd
kts
Gust
kts
08/11:30pm 22.7 24.5 16.5 68 3.8 S 2 6 1 3 1015.3 1015.3 0.0
08/11:00pm 23.4 24.4 16.4 64 4.3 SSE 6 11 3 6 1015.6 1015.6 0.0
08/10:30pm 23.9 24.8 16.7 64 4.4 SSE 7 13 4 7 1015.7 1015.7 0.0
08/10:00pm 23.9 25.0 16.7 64 4.4 SSE 6 13 3 7 1015.5 1015.5 0.0
08/09:30pm 24.2 25.3 17.0 64 4.4 SSE 7 15 4 8 1015.5 1015.5 0.0
08/09:00pm 24.3 25.1 17.3 65 4.3 SE 9 17 5 9 1015.6 1015.6 0.0
08/08:30pm 24.6 25.4 17.3 64 4.5 SE 9 20 5 11 1015.2 1015.2 0.0
08/08:00pm 24.8 25.1 18.0 66 4.3 SE 13 24 7 13 1014.7 1014.7 0.0
08/07:30pm 24.9 26.0 18.1 66 4.3 ESE 9 19 5 10 1014.4 1014.4 0.0
08/07:00pm 25.3 26.1 18.2 64 4.5 ESE 11 22 6 12 1014.0 1014.0 0.0
08/06:30pm 25.9 26.8 18.3 63 4.8 ESE 11 20 6 11 1013.6 1013.6 0.0
08/06:00pm 26.8 27.3 18.4 60 5.3 SE 13 22 7 12 1012.9 1012.9 0.0
08/05:30pm 27.7 28.7 18.7 58 5.8 ESE 11 19 6 10 1012.5 1012.5 0.0
08/05:00pm 27.6 28.6 17.7 54 6.3 ESE 9 19 5 10 1012.4 1012.4 0.0
08/04:30pm 28.1 28.1 17.3 52 6.8 ESE 13 26 7 14 1012.4 1012.4 0.0
08/04:00pm 29.2 29.7 18.3 51 7.0 ESE 13 26 7 14 1012.3 1012.3 0.0
08/03:30pm 29.2 29.2 17.1 48 7.6 ESE 13 20 7 11 1012.4 1012.4 0.0
08/03:00pm 29.5 29.1 16.3 45 8.2 SE 13 24 7 13 1012.6 1012.6 0.0
08/02:30pm 28.9 29.1 16.8 48 7.6 SE 11 20 6 11 1012.8 1012.8 0.0
08/02:00pm 28.5 28.7 17.7 52 6.8 E 13 20 7 11 1013.0 1013.0 0.0
08/01:30pm 29.8 29.7 15.9 43 8.6 SE 11 22 6 12 1013.3 1013.3 0.0
08/01:00pm 29.4 28.8 16.6 46 8.0 ESE 15 24 8 13 1013.5 1013.5 0.0
08/12:30pm 29.1 29.0 17.0 48 7.6 SSE 13 24 7 13 1013.9 1013.9 0.0
08/12:00pm 28.8 29.2 16.4 47 7.7 S 9 20 5 11 1014.1 1014.1 0.0
08/11:30am 29.1 29.5 16.3 46 8.0 SSE 9 20 5 11 1014.4 1014.4 0.0
08/11:00am 28.4 29.1 17.0 50 7.1 SSE 9 22 5 12 1014.8 1014.8 0.0
08/10:30am 28.1 28.0 16.1 48 7.4 S 11 22 6 12 1015.2 1015.2 0.0
08/10:00am 27.4 28.0 15.7 48 7.2 SSE 7 19 4 10 1015.5 1015.5 0.0
08/09:30am 26.9 27.3 15.3 49 7.0 SSE 7 19 4 10 1015.8 1015.8 0.0
08/09:00am 26.2 26.5 15.9 53 6.3 SSW 9 19 5 10 1015.9 1015.9 0.2
08/08:30am 25.6 26.2 16.7 58 5.5 SSW 9 17 5 9 1015.9 1015.9 0.2
08/08:00am 24.7 25.5 16.4 60 5.1 SSW 7 17 4 9 1015.9 1015.9 0.2
08/07:30am 23.7 25.0 17.2 67 4.0 SSW 6 9 3 5 1015.8 1015.8 0.2
08/07:00am 22.5 23.7 16.8 70 3.5 SSW 6 9 3 5 1015.6 1015.6 0.2
08/06:30am 21.4 22.9 16.6 74 2.9 WSW 4 9 2 5 1015.3 1015.3 0.2
08/06:00am 20.3 21.9 16.9 81 2.1 WSW 4 7 2 4 1015.0 1015.0 0.2
08/05:30am 20.1 21.7 16.9 82 1.9 WSW 4 6 2 3 1014.5 1014.5 0.2
08/05:00am 20.3 21.4 16.7 80 2.2 SW 6 9 3 5 1014.3 1014.3 0.2
08/04:30am 20.4 22.3 16.8 80 2.2 SW 2 6 1 3 1014.4 1014.4 0.2
08/04:00am 20.5 22.1 16.9 80 2.2 WSW 4 9 2 5 1014.4 1014.4 0.2
08/03:30am 20.2 22.0 16.4 79 2.3 WSW 2 6 1 3 1014.3 1014.3 0.2
08/03:00am 20.3 22.0 16.1 77 2.5 WSW 2 4 1 2 1014.5 1014.5 0.2
08/02:30am 20.8 21.7 16.2 75 2.8 SW 6 9 3 5 1014.4 1014.4 0.2
08/02:00am 20.9 22.3 16.3 75 2.8 SW 4 9 2 5 1014.6 1014.6 0.2
08/01:30am 20.9 22.3 16.3 75 2.8 SW 4 7 2 4 1014.8 1014.8 0.2
08/01:00am 21.0 22.8 16.4 75 2.8 WSW 2 4 1 2 1014.9 1014.9 0.2
08/12:30am 21.2 22.9 16.2 73 3.0 WSW 2 6 1 3 1015.2 1015.2 0.2
08/12:00am 21.6 23.6 16.1 71 3.3 CALM 0 2 0 1 1015.7 1015.7 0.2
 
Date/Time
EST
Temp
°C
App
Temp
°C
Dew
Point
Rel
Hum
%
Delta-T
°C
Wind Press
QNH
hPa
Press
MSL
hPa
Rain
since 9 am
mm
Dir
 
Spd
km/h
Gust
km/h
Spd
kts
Gust
kts
07/11:30pm 22.3 23.7 16.3 69 3.6 SSW 4 9 2 5 1015.6 1015.6 0.2
07/11:00pm 22.7 23.7 16.3 67 3.9 S 6 11 3 6 1015.5 1015.5 0.2
07/10:30pm 22.9 23.9 16.4 67 4.0 SSW 6 13 3 7 1015.5 1015.5 0.2
07/10:00pm 23.1 24.2 16.6 67 4.0 S 6 11 3 6 1015.5 1015.5 0.2
07/09:30pm 23.1 24.6 16.6 67 4.0 SSE 4 11 2 6 1015.4 1015.4 0.2
07/09:00pm 23.0 24.9 16.8 68 3.8 SE 2 4 1 2 1015.3 1015.3 0.2
07/08:30pm 23.5 25.4 16.8 66 4.1 SE 2 6 1 3 1015.1 1015.1 0.2
07/08:00pm 24.3 25.4 16.6 62 4.7 ESE 6 9 3 5 1014.7 1014.7 0.2
07/07:30pm 24.9 25.9 16.3 59 5.3 ESE 6 11 3 6 1014.8 1014.8 0.2
07/07:00pm 25.2 26.3 16.6 59 5.3 ESE 6 13 3 7 1014.3 1014.3 0.2
07/06:30pm 25.3 26.4 17.0 60 5.1 SE 7 17 4 9 1013.7 1013.7 0.2
07/06:00pm 25.4 25.6 16.8 59 5.3 SE 11 19 6 10 1013.3 1013.3 0.2
07/05:30pm 25.6 26.8 17.3 60 5.2 S 7 17 4 9 1013.1 1013.1 0.2
07/05:00pm 26.0 27.2 17.4 59 5.4 SE 7 19 4 10 1012.9 1012.9 0.2
07/04:30pm 26.3 27.7 17.9 60 5.3 SE 7 15 4 8 1012.6 1012.6 0.2
07/04:00pm 26.6 27.6 17.7 58 5.6 SE 9 15 5 8 1012.4 1012.4 0.2
07/03:30pm 26.5 27.1 17.8 58 5.5 SE 11 19 6 10 1012.3 1012.3 0.2
07/03:00pm 26.4 27.0 17.7 58 5.5 SE 11 28 6 15 1012.4 1012.4 0.2
07/02:30pm 26.8 27.2 18.1 59 5.5 SE 13 28 7 15 1012.7 1012.7 0.2
07/02:00pm 27.4 28.1 18.9 59 5.5 SE 13 24 7 13 1012.8 1012.8 0.2
07/01:30pm 27.3 28.0 18.9 60 5.4 SE 13 22 7 12 1012.8 1012.8 0.2
07/01:00pm 27.3 28.3 18.6 59 5.6 SE 11 22 6 12 1012.8 1012.8 0.2
07/12:30pm 27.8 28.4 18.5 57 5.9 SE 13 22 7 12 1012.9 1012.9 0.2
07/12:00pm 27.8 29.0 19.1 59 5.6 SSE 11 19 6 10 1012.9 1012.9 0.2
07/11:30am 27.4 29.8 19.7 63 5.0 S 6 17 3 9 1013.3 1013.3 0.2
07/11:00am 25.7 27.7 19.1 67 4.2 SSW 7 17 4 9 1013.4 1013.4 0.2
07/10:30am 25.2 26.0 18.2 65 4.4 SSW 11 20 6 11 1013.5 1013.5 0.2
07/10:00am 26.6 28.6 19.2 64 4.8 S 7 15 4 8 1013.5 1013.5 0.2
07/09:30am 25.6 27.3 18.5 65 4.5 S 7 15 4 8 1013.7 1013.7 0.2
07/09:00am 25.9 27.3 18.6 64 4.6 SSW 9 17 5 9 1013.7 1013.7 7.8
07/08:30am 25.7 27.9 19.3 67 4.1 S 6 9 3 5 1013.4 1013.4 7.8
07/08:00am 24.1 25.9 18.7 72 3.4 S 7 13 4 7 1013.5 1013.5 7.8
07/07:30am 23.8 26.0 19.1 75 3.0 SSW 6 11 3 6 1013.1 1013.1 7.8
07/07:00am 23.0 25.2 19.2 79 2.4 SW 6 13 3 7 1013.2 1013.2 7.8
07/06:30am 22.1 24.8 19.5 85 1.7 SW 4 13 2 7 1013.1 1013.1 7.8
07/06:00am 21.6 24.2 19.3 87 1.5 SW 4 13 2 7 1012.8 1012.8 7.8
07/05:30am 21.4 24.0 19.3 88 1.3 SW 4 9 2 5 1012.4 1012.4 7.8
07/05:00am 21.6 23.9 19.5 88 1.3 SW 6 11 3 6 1012.3 1012.3 7.8
07/04:30am 21.7 24.5 19.6 88 1.3 SW 4 13 2 7 1012.0 1012.0 7.8
07/04:00am 22.0 24.5 19.9 88 1.3 SW 6 7 3 4 1011.6 1011.6 7.8
07/03:30am 22.1 25.2 20.2 89 1.2 SW 4 7 2 4 1011.7 1011.7 7.8
07/03:00am 22.4 25.4 20.1 87 1.5 SW 4 7 2 4 1011.6 1011.6 7.8
07/02:30am 22.7 25.5 20.4 87 1.5 SSW 6 11 3 6 1011.6 1011.6 7.8
07/02:00am 22.6 26.2 20.5 88 1.4 SW 2 4 1 2 1011.5 1011.5 7.8
07/01:30am 22.5 26.1 20.6 89 1.2 S 2 7 1 4 1011.4 1011.4 7.8
07/01:00am 22.5 25.4 20.6 89 1.2 SSE 6 7 3 4 1011.4 1011.4 7.8
07/12:30am 22.5 25.4 20.6 89 1.2 SSE 6 9 3 5 1011.7 1011.7 7.8
07/12:00am 22.5 26.1 20.6 89 1.2 SSE 2 6 1 3 1012.0 1012.0 7.8
 
Date/Time
EST
Temp
°C
App
Temp
°C
Dew
Point
Rel
Hum
%
Delta-T
°C
Wind Press
QNH
hPa
Press
MSL
hPa
Rain
since 9 am
mm
Dir
 
Spd
km/h
Gust
km/h
Spd
kts
Gust
kts
06/11:30pm 22.6 25.6 20.9 90 1.1 SSE 6 9 3 5 1012.5 1012.5 7.8
06/11:00pm 22.7 26.4 20.8 89 1.2 S 2 7 1 4 1012.8 1012.8 7.4
06/10:30pm 22.7 26.0 20.8 89 1.2 S 4 7 2 4 1013.2 1013.2 7.4
06/10:00pm 22.7 26.1 21.0 90 1.1 S 4 9 2 5 1013.4 1013.4 7.4
06/09:30pm 22.6 25.6 20.9 90 1.1 S 6 11 3 6 1013.3 1013.3 7.4
06/09:00pm 22.7 26.5 21.0 90 1.1 S 2 7 1 4 1012.8 1012.8 7.0
06/08:30pm 22.6 25.3 20.7 89 1.2 SE 7 15 4 8 1012.8 1012.8 7.0
06/08:00pm 22.8 26.4 21.3 91 1.0 SSE 4 9 2 5 1012.5 1012.5 6.6
06/07:30pm 22.8 25.8 21.3 91 1.0 SE 7 15 4 8 1011.9 1011.9 6.6
06/07:00pm 23.7 26.5 20.8 84 1.9 SSE 7 13 4 7 1011.5 1011.5 1.8
06/06:30pm 24.1 26.4 20.6 81 2.3 SE 9 20 5 11 1011.3 1011.3 1.8
06/06:00pm 23.8 25.6 20.3 81 2.3 SE 11 22 6 12 1010.7 1010.7 1.8
06/05:30pm 25.7 27.5 20.3 72 3.5 SE 11 22 6 12 1010.3 1010.2 1.8
06/05:00pm 25.8 28.1 20.6 73 3.4 ESE 9 20 5 11 1010.0 1009.9 1.8
06/04:30pm 25.4 26.7 20.2 73 3.4 SE 13 26 7 14 1009.7 1009.6 1.8
06/04:00pm 25.8 26.6 19.9 70 3.8 SE 15 30 8 16 1009.5 1009.4 1.8
06/03:30pm 27.6 28.3 19.7 62 5.1 SE 15 28 8 15 1009.3 1009.2 1.8
06/03:00pm 27.1 28.5 20.4 66 4.4 ESE 13 26 7 14 1009.3 1009.2 1.8
06/02:30pm 27.9 29.6 21.0 66 4.6 ESE 13 24 7 13 1009.4 1009.3 1.8
06/02:00pm 28.9 29.7 19.8 58 6.0 ESE 15 28 8 15 1009.4 1009.3 1.8

Other Formats:

Comma delimited format used in spreadsheet applications
http://www.bom.gov.au/fwo/IDQ60801/IDQ60801.94576.axf

JavaScript Object Notation format (JSON) in row-major order
http://www.bom.gov.au/fwo/IDQ60801/IDQ60801.94576.json